createdAt,value
2022-09-16T00:00:35.383Z,95338.78
2022-09-16T00:03:25.074Z,95339.98
2022-09-16T00:05:54.959Z,95338.20
2022-09-16T00:08:23.488Z,95339.30
2022-09-16T00:10:53.480Z,95337.42
2022-09-16T00:13:22.915Z,95337.27
2022-09-16T00:15:52.766Z,95337.74
2022-09-16T00:18:22.742Z,95345.30
2022-09-16T00:20:55.242Z,95347.68
2022-09-16T00:23:25.085Z,95356.27
2022-09-16T00:25:58.405Z,95361.35
2022-09-16T00:28:28.732Z,95361.73
2022-09-16T00:31:02.058Z,95359.43
2022-09-16T00:33:32.937Z,95352.42
2022-09-16T00:36:11.891Z,95365.43
2022-09-16T00:38:41.058Z,95362.86
2022-09-16T00:41:17.361Z,95362.47
2022-09-16T00:43:53.126Z,95361.85
2022-09-16T00:46:27.676Z,95367.34
2022-09-16T00:49:01.424Z,95367.02
2022-09-16T00:51:31.664Z,95364.48
2022-09-16T00:54:05.078Z,95362.43
2022-09-16T00:56:38.687Z,95361.61
2022-09-16T00:59:26.965Z,95362.06
2022-09-16T01:02:01.027Z,95365.13
2022-09-16T01:04:35.849Z,95371.73
2022-09-16T01:07:04.605Z,95375.09
2022-09-16T01:09:34.734Z,95380.08
2022-09-16T01:12:04.958Z,95381.15
2022-09-16T01:14:56.969Z,95382.45
2022-09-16T01:17:36.369Z,95389.48
2022-09-16T01:20:48.524Z,95391.77
2022-09-16T01:23:54.599Z,95390.63
2022-09-16T01:26:35.265Z,95392.23
2022-09-16T01:29:35.527Z,95393.98
2022-09-16T01:32:16.485Z,95400.74
2022-09-16T01:35:09.722Z,95406.31
2022-09-16T01:37:52.187Z,95405.23
2022-09-16T01:40:39.023Z,95407.54
2022-09-16T01:43:33.235Z,95417.39
2022-09-16T01:46:40.437Z,95416.02
2022-09-16T01:49:38.154Z,95412.09
2022-09-16T01:52:32.493Z,95416.70
2022-09-16T01:55:08.817Z,95418.98
2022-09-16T01:58:02.447Z,95423.54
2022-09-16T02:00:33.884Z,95422.27
2022-09-16T02:03:20.273Z,95427.95
2022-09-16T02:05:59.479Z,95435.38
2022-09-16T02:08:42.522Z,95440.23
2022-09-16T02:11:17.042Z,95431.61
2022-09-16T02:13:49.174Z,95435.85
2022-09-16T02:16:28.122Z,95432.00
2022-09-16T02:19:06.970Z,95431.88
2022-09-16T02:21:44.908Z,95441.80
2022-09-16T02:24:19.706Z,95451.15
2022-09-16T02:27:01.169Z,95445.86
2022-09-16T02:29:50.149Z,95461.15
2022-09-16T02:32:22.694Z,95471.61
2022-09-16T02:34:54.990Z,95475.52
2022-09-16T02:37:37.806Z,95468.73
2022-09-16T02:40:16.186Z,95470.46
2022-09-16T02:42:46.346Z,95472.32
2022-09-16T02:45:19.624Z,95472.80
2022-09-16T02:48:13.321Z,95466.78
2022-09-16T02:51:00.894Z,95469.52
2022-09-16T02:54:03.171Z,95473.91
2022-09-16T02:56:36.572Z,95480.45
2022-09-16T02:59:11.059Z,95485.78
2022-09-16T03:01:44.555Z,95480.35
2022-09-16T03:04:17.278Z,95483.09
2022-09-16T03:06:47.221Z,95481.27
2022-09-16T03:09:18.879Z,95487.05
2022-09-16T03:12:20.005Z,95498.36
2022-09-16T03:15:08.828Z,95501.73
2022-09-16T03:17:55.386Z,95507.48
2022-09-16T03:20:39.711Z,95511.34
2022-09-16T03:23:37.872Z,95511.77
2022-09-16T03:26:31.765Z,95506.91
2022-09-16T03:29:19.355Z,95505.56
2022-09-16T03:32:18.037Z,95505.42
2022-09-16T03:34:55.764Z,95501.67
2022-09-16T03:37:27.688Z,95496.73
2022-09-16T03:40:03.268Z,95490.97
2022-09-16T03:42:38.716Z,95491.70
2022-09-16T03:45:11.085Z,95494.33
2022-09-16T03:47:40.945Z,95499.73
2022-09-16T03:50:10.577Z,95506.95
2022-09-16T03:52:40.421Z,95507.09
2022-09-16T03:55:11.462Z,95509.17
2022-09-16T03:57:41.279Z,95510.85
2022-09-16T04:00:12.347Z,95509.83
2022-09-16T04:02:45.233Z,95506.48
2022-09-16T04:05:15.438Z,95512.20
2022-09-16T04:07:45.240Z,95518.53
2022-09-16T04:10:14.608Z,95527.17
2022-09-16T04:12:46.378Z,95532.29
2022-09-16T04:15:16.421Z,95536.68
2022-09-16T04:17:45.112Z,95538.56
2022-09-16T04:20:14.880Z,95532.31
2022-09-16T04:22:44.908Z,95522.98
2022-09-16T04:25:14.527Z,95525.04
2022-09-16T04:27:44.992Z,95523.95
2022-09-16T04:30:14.730Z,95520.10
2022-09-16T04:32:44.721Z,95527.67
2022-09-16T04:35:14.474Z,95529.78
2022-09-16T04:37:43.728Z,95539.10
2022-09-16T04:40:13.844Z,95541.15
2022-09-16T04:42:49.751Z,95545.44
2022-09-16T04:45:19.577Z,95547.96
2022-09-16T04:47:48.858Z,95543.27
2022-09-16T04:50:18.161Z,95540.38
2022-09-16T04:52:50.577Z,95536.95
2022-09-16T04:55:23.554Z,95532.39
2022-09-16T04:57:53.793Z,95532.98
2022-09-16T05:00:22.927Z,95530.75
2022-09-16T05:02:56.177Z,95537.17
2022-09-16T05:05:26.177Z,95541.37
2022-09-16T05:07:56.041Z,95541.07
2022-09-16T05:10:25.239Z,95544.41
2022-09-16T05:12:55.541Z,95547.33
2022-09-16T05:15:27.270Z,95553.19
2022-09-16T05:17:58.026Z,95554.86
2022-09-16T05:20:30.511Z,95556.22
2022-09-16T05:23:01.346Z,95554.98
2022-09-16T05:25:31.319Z,95559.18
2022-09-16T05:28:01.757Z,95560.26
2022-09-16T05:30:31.175Z,95570.42
2022-09-16T05:33:00.981Z,95579.70
2022-09-16T05:35:31.139Z,95577.56
2022-09-16T05:38:00.377Z,95575.71
2022-09-16T05:40:29.899Z,95575.43
2022-09-16T05:43:01.600Z,95569.48
2022-09-16T05:45:32.593Z,95568.51
2022-09-16T05:48:02.356Z,95569.34
2022-09-16T05:50:31.609Z,95565.35
2022-09-16T05:53:00.950Z,95564.60
2022-09-16T05:55:30.452Z,95568.08
2022-09-16T05:58:00.870Z,95566.95
2022-09-16T06:00:30.689Z,95568.48
2022-09-16T06:03:00.810Z,95566.76
2022-09-16T06:05:32.172Z,95560.70
2022-09-16T06:08:02.031Z,95557.29
2022-09-16T06:10:31.969Z,95553.02
2022-09-16T06:13:01.847Z,95557.61
2022-09-16T06:15:34.462Z,95559.96
2022-09-16T06:18:06.450Z,95556.98
2022-09-16T06:20:37.000Z,95555.61
2022-09-16T06:23:06.194Z,95553.73
2022-09-16T06:25:35.371Z,95564.77
2022-09-16T06:28:04.932Z,95572.23
2022-09-16T06:30:34.555Z,95572.34
2022-09-16T06:33:04.156Z,95569.59
2022-09-16T06:35:35.926Z,95577.29
2022-09-16T06:38:05.626Z,95576.54
2022-09-16T06:40:34.851Z,95581.54
2022-09-16T06:43:05.644Z,95587.91
2022-09-16T06:45:36.458Z,95586.61
2022-09-16T06:48:08.287Z,95591.02
2022-09-16T06:50:36.790Z,95592.71
2022-09-16T06:53:06.736Z,95587.17
2022-09-16T06:55:36.529Z,95590.32
2022-09-16T06:58:05.692Z,95585.28
2022-09-16T07:00:34.866Z,95583.48
2022-09-16T07:03:03.376Z,95584.09
2022-09-16T07:05:32.561Z,95591.05
2022-09-16T07:08:01.819Z,95587.98
2022-09-16T07:10:31.234Z,95590.22
2022-09-16T07:13:01.216Z,95594.47
2022-09-16T07:15:31.346Z,95590.39
2022-09-16T07:18:03.084Z,95588.77
2022-09-16T07:20:32.973Z,95587.98
2022-09-16T07:23:02.320Z,95586.42
2022-09-16T07:25:35.656Z,95584.40
2022-09-16T07:28:06.125Z,95590.27
2022-09-16T07:30:35.478Z,95591.16
2022-09-16T07:33:05.295Z,95584.91
2022-09-16T07:35:34.539Z,95590.25
2022-09-16T07:38:03.734Z,95591.48
2022-09-16T07:40:35.090Z,95590.90
2022-09-16T07:43:04.349Z,95589.79
2022-09-16T07:45:33.591Z,95589.27
2022-09-16T07:48:03.102Z,95597.31
2022-09-16T07:50:35.852Z,95598.02
2022-09-16T07:53:07.184Z,95597.14
2022-09-16T07:55:39.667Z,95600.13
2022-09-16T07:58:09.352Z,95596.64
2022-09-16T08:00:39.545Z,95587.44
2022-09-16T08:03:11.785Z,95588.18
2022-09-16T08:05:42.509Z,95589.50
2022-09-16T08:08:12.578Z,95590.69
2022-09-16T08:10:43.747Z,95585.46
2022-09-16T08:13:13.620Z,95587.77
2022-09-16T08:15:43.906Z,95587.02
2022-09-16T08:18:12.457Z,95586.87
2022-09-16T08:20:42.801Z,95587.53
2022-09-16T08:23:14.776Z,95584.51
2022-09-16T08:25:43.779Z,95585.77
2022-09-16T08:28:18.115Z,95585.54
2022-09-16T08:30:52.698Z,95583.92
2022-09-16T08:33:26.809Z,95585.44
2022-09-16T08:36:07.145Z,95584.83
2022-09-16T08:38:36.513Z,95582.89
2022-09-16T08:41:37.037Z,95577.52
2022-09-16T08:44:33.364Z,95577.52
2022-09-16T08:47:10.352Z,95577.52
2022-09-16T08:49:46.459Z,95584.84
2022-09-16T08:52:35.329Z,95586.84
2022-09-16T08:55:25.633Z,95585.85
2022-09-16T08:58:08.171Z,95584.20
2022-09-16T09:00:38.501Z,95582.09
2022-09-16T09:03:27.573Z,95574.73
2022-09-16T09:06:00.267Z,95567.77
2022-09-16T09:09:03.834Z,95566.00
2022-09-16T09:12:01.309Z,95571.23
2022-09-16T09:14:48.522Z,95572.60
2022-09-16T09:17:48.192Z,95574.88
2022-09-16T09:20:21.117Z,95571.84
2022-09-16T09:23:34.903Z,95565.61
2022-09-16T09:26:15.903Z,95557.87
2022-09-16T09:29:36.964Z,95558.38
2022-09-16T09:32:15.066Z,95561.10
2022-09-16T09:35:18.924Z,95561.80
2022-09-16T09:38:27.826Z,95560.13
2022-09-16T09:41:05.034Z,95562.55
2022-09-16T09:46:31.569Z,95564.40
2022-09-16T09:49:06.379Z,95568.70
2022-09-16T09:51:57.845Z,95577.08
2022-09-16T09:54:30.302Z,95571.45
2022-09-16T09:57:07.574Z,95575.79
2022-09-16T09:59:42.444Z,95577.92
2022-09-16T10:02:20.348Z,95582.02
2022-09-16T10:04:50.048Z,95586.89
2022-09-16T10:07:23.880Z,95587.66
2022-09-16T10:10:00.181Z,95578.01
2022-09-16T10:12:37.346Z,95565.57
2022-09-16T10:15:20.050Z,95570.55
2022-09-16T10:17:56.182Z,95573.14
2022-09-16T10:20:36.229Z,95575.34
2022-09-16T10:23:16.296Z,95576.58
2022-09-16T10:25:47.271Z,95577.51
2022-09-16T10:28:27.115Z,95581.03
2022-09-16T10:30:59.153Z,95582.81
2022-09-16T10:33:36.011Z,95586.40
2022-09-16T10:36:12.306Z,95587.79
2022-09-16T10:38:45.430Z,95593.77
2022-09-16T10:41:30.854Z,95591.36
2022-09-16T10:44:29.356Z,95596.00
2022-09-16T10:47:13.564Z,95599.52
2022-09-16T10:49:51.984Z,95596.66
2022-09-16T10:52:23.457Z,95593.18
2022-09-16T10:54:56.758Z,95594.27
2022-09-16T10:57:32.336Z,95590.38
2022-09-16T11:00:02.277Z,95596.63
2022-09-16T11:03:05.679Z,95598.94
2022-09-16T11:05:46.093Z,95607.73
2022-09-16T11:08:33.906Z,95608.91
2022-09-16T11:11:41.473Z,95613.49
2022-09-16T11:14:42.588Z,95615.20
2022-09-16T11:17:22.078Z,95607.60
2022-09-16T11:20:02.458Z,95606.42
2022-09-16T11:22:50.568Z,95609.19
2022-09-16T11:25:44.959Z,95606.90
2022-09-16T11:28:45.658Z,95601.55
2022-09-16T11:31:48.339Z,95606.75
2022-09-16T11:34:19.683Z,95612.77
2022-09-16T11:37:00.955Z,95616.06
2022-09-16T11:39:55.340Z,95620.84
2022-09-16T11:42:38.482Z,95617.75
2022-09-16T11:45:30.144Z,95622.06
2022-09-16T11:48:30.208Z,95618.40
2022-09-16T11:51:17.931Z,95621.06
2022-09-16T11:54:18.678Z,95626.25
2022-09-16T11:56:53.515Z,95625.30
2022-09-16T11:59:32.326Z,95626.05
2022-09-16T12:02:15.352Z,95621.55
2022-09-16T12:04:52.265Z,95616.85
2022-09-16T12:07:43.410Z,95612.44
2022-09-16T12:10:25.871Z,95608.38
2022-09-16T12:13:15.805Z,95604.73
2022-09-16T12:15:54.023Z,95602.56
2022-09-16T12:18:38.071Z,95599.14
2022-09-16T12:21:25.802Z,95600.70
2022-09-16T12:24:07.146Z,95603.14
2022-09-16T12:26:48.975Z,95599.87
2022-09-16T12:29:51.918Z,95599.44
2022-09-16T12:32:52.563Z,95604.05
2022-09-16T12:35:40.537Z,95601.61
2022-09-16T12:38:19.504Z,95600.80
2022-09-16T12:41:08.230Z,95598.98
2022-09-16T12:44:02.263Z,95600.88
2022-09-16T12:46:53.725Z,95594.38
2022-09-16T12:49:40.431Z,95595.27
2022-09-16T12:52:38.279Z,95594.74
2022-09-16T12:55:36.533Z,95590.71
2022-09-16T12:58:28.986Z,95593.16
2022-09-16T13:01:13.941Z,95594.88
2022-09-16T13:03:48.902Z,95595.86
2022-09-16T13:06:36.274Z,95590.16
2022-09-16T13:09:28.692Z,95587.02
2022-09-16T13:15:05.560Z,95582.97
2022-09-16T13:17:40.284Z,95583.86
2022-09-16T13:20:33.316Z,95588.30
2022-09-16T13:23:20.242Z,95582.48
2022-09-16T13:26:02.798Z,95579.48
2022-09-16T13:28:41.105Z,95574.06
2022-09-16T13:31:21.271Z,95567.63
2022-09-16T13:34:22.720Z,95570.52
2022-09-16T13:36:53.128Z,95570.95
2022-09-16T13:39:31.490Z,95571.98
2022-09-16T13:42:21.802Z,95574.83
2022-09-16T13:44:53.215Z,95576.64
2022-09-16T13:47:40.935Z,95577.58
2022-09-16T13:50:14.687Z,95576.23
2022-09-16T13:52:44.864Z,95575.07
2022-09-16T13:55:26.693Z,95571.48
2022-09-16T13:58:23.889Z,95570.56
2022-09-16T14:01:28.183Z,95568.69
2022-09-16T14:04:32.372Z,95569.13
2022-09-16T14:07:19.613Z,95569.93
2022-09-16T14:10:16.253Z,95570.98
2022-09-16T14:13:19.674Z,95567.13
2022-09-16T14:15:54.722Z,95569.03
2022-09-16T14:18:30.251Z,95568.39
2022-09-16T14:21:18.064Z,95565.79
2022-09-16T14:23:48.760Z,95567.60
2022-09-16T14:26:24.928Z,95564.73
2022-09-16T14:29:05.659Z,95560.48
2022-09-16T14:31:37.616Z,95559.94
2022-09-16T14:34:10.741Z,95559.55
2022-09-16T14:36:41.166Z,95551.44
2022-09-16T14:39:16.294Z,95545.26
2022-09-16T14:42:07.046Z,95545.71
2022-09-16T14:44:41.396Z,95548.48
2022-09-16T14:47:39.722Z,95550.91
2022-09-16T14:50:32.822Z,95548.98
2022-09-16T14:53:06.039Z,95549.91
2022-09-16T14:55:41.399Z,95550.27
2022-09-16T14:58:12.499Z,95550.81
2022-09-16T15:00:51.865Z,95549.41
2022-09-16T15:03:41.954Z,95544.73
2022-09-16T15:06:20.556Z,95537.61
2022-09-16T15:09:17.834Z,95535.22
2022-09-16T15:11:56.197Z,95533.42
2022-09-16T15:14:27.246Z,95532.42
2022-09-16T15:17:02.803Z,95530.95
2022-09-16T15:19:41.967Z,95529.62
2022-09-16T15:22:30.483Z,95530.73
2022-09-16T15:25:00.635Z,95529.45
2022-09-16T15:27:32.989Z,95528.02
2022-09-16T15:30:06.771Z,95527.81
2022-09-16T15:32:45.702Z,95516.02
2022-09-16T15:35:24.293Z,95513.11
2022-09-16T15:37:57.480Z,95511.02
2022-09-16T15:40:27.213Z,95509.11
2022-09-16T15:43:46.357Z,95506.05
2022-09-16T15:46:22.664Z,95498.23
2022-09-16T15:48:59.846Z,95490.87
2022-09-16T15:51:38.190Z,95493.59
2022-09-16T15:54:25.021Z,95504.42
2022-09-16T15:57:02.678Z,95507.01
2022-09-16T15:59:42.892Z,95506.02
2022-09-16T16:02:28.688Z,95500.78
2022-09-16T16:05:16.525Z,95503.76
2022-09-16T16:07:53.156Z,95500.54
2022-09-16T16:10:27.286Z,95496.09
2022-09-16T16:12:58.063Z,95493.66
2022-09-16T16:15:39.369Z,95495.40
2022-09-16T16:18:13.895Z,95492.33
2022-09-16T16:20:43.426Z,95490.90
2022-09-16T16:23:17.020Z,95497.23
2022-09-16T16:25:48.844Z,95489.02
2022-09-16T16:28:18.363Z,95489.20
2022-09-16T16:30:49.028Z,95482.44
2022-09-16T16:33:18.647Z,95477.59
2022-09-16T16:35:47.107Z,95475.08
2022-09-16T16:38:18.599Z,95481.19
2022-09-16T16:40:51.638Z,95482.04
2022-09-16T16:43:20.144Z,95482.95
2022-09-16T16:45:59.018Z,95483.06
2022-09-16T16:48:30.209Z,95482.27
2022-09-16T16:51:05.543Z,95484.85
2022-09-16T16:53:41.757Z,95479.73
2022-09-16T16:56:15.623Z,95475.53
2022-09-16T16:58:46.108Z,95481.48
2022-09-16T17:01:20.414Z,95478.95
2022-09-16T17:03:50.657Z,95475.34
2022-09-16T17:06:20.730Z,95480.38
2022-09-16T17:08:50.022Z,95479.85
2022-09-16T17:11:22.472Z,95484.85
2022-09-16T17:13:54.705Z,95486.38
2022-09-16T17:16:27.261Z,95483.63
2022-09-16T17:19:00.446Z,95487.67
2022-09-16T17:21:34.796Z,95491.87
2022-09-16T17:24:07.707Z,95492.05
2022-09-16T17:26:38.215Z,95495.84
2022-09-16T17:29:15.002Z,95496.05
2022-09-16T17:31:46.699Z,95492.94
2022-09-16T17:34:16.252Z,95488.92
2022-09-16T17:36:47.055Z,95495.63
2022-09-16T17:39:21.821Z,95494.35
2022-09-16T17:41:56.979Z,95499.35
2022-09-16T17:44:27.463Z,95492.42
2022-09-16T17:46:56.096Z,95491.52
2022-09-16T17:49:26.484Z,95496.91
2022-09-16T17:51:57.260Z,95494.35
2022-09-16T17:54:27.431Z,95495.44
2022-09-16T17:56:59.539Z,95504.67
2022-09-16T17:59:29.507Z,95511.21
2022-09-16T18:01:58.073Z,95520.77
2022-09-16T18:04:27.241Z,95525.84
2022-09-16T18:06:57.278Z,95532.93
2022-09-16T18:09:29.469Z,95534.07
2022-09-16T18:12:00.094Z,95535.44
2022-09-16T18:14:30.323Z,95546.65
2022-09-16T18:17:00.544Z,95549.52
2022-09-16T18:19:29.157Z,95555.99
2022-09-16T18:21:59.104Z,95563.58
2022-09-16T18:24:29.152Z,95564.32
2022-09-16T18:27:02.205Z,95564.36
2022-09-16T18:29:33.560Z,95563.04
2022-09-16T18:32:05.362Z,95568.63
2022-09-16T18:34:35.377Z,95566.69
2022-09-16T18:37:05.331Z,95567.10
2022-09-16T18:39:35.323Z,95569.98
2022-09-16T18:42:08.080Z,95565.56
2022-09-16T18:44:38.240Z,95562.38
2022-09-16T18:47:10.724Z,95563.13
2022-09-16T18:49:40.878Z,95554.45
2022-09-16T18:52:10.799Z,95553.45
2022-09-16T18:54:41.558Z,95557.38
2022-09-16T18:57:10.914Z,95559.89
2022-09-16T18:59:40.890Z,95559.41
2022-09-16T19:02:12.825Z,95555.41
2022-09-16T19:04:45.938Z,95542.38
2022-09-16T19:07:17.653Z,95537.19
2022-09-16T19:09:48.810Z,95535.33
2022-09-16T19:12:18.584Z,95544.30
2022-09-16T19:14:48.613Z,95548.90
2022-09-16T19:17:18.827Z,95554.91
2022-09-16T19:19:51.090Z,95559.51
2022-09-16T19:22:21.196Z,95558.03
2022-09-16T19:24:53.054Z,95556.72
2022-09-16T19:27:23.010Z,95552.63
2022-09-16T19:29:55.014Z,95553.52
2022-09-16T19:32:25.216Z,95554.54
2022-09-16T19:34:55.396Z,95554.93
2022-09-16T19:37:25.841Z,95557.61
2022-09-16T19:39:55.917Z,95561.45
2022-09-16T19:42:26.058Z,95559.00
2022-09-16T19:44:56.252Z,95556.30
2022-09-16T19:47:25.919Z,95553.39
2022-09-16T19:49:57.475Z,95552.85
2022-09-16T19:52:27.453Z,95554.06
2022-09-16T19:54:56.728Z,95556.29
2022-09-16T19:57:26.670Z,95562.48
2022-09-16T19:59:56.386Z,95558.34
2022-09-16T20:02:26.416Z,95565.14
2022-09-16T20:04:56.198Z,95564.09
2022-09-16T20:07:25.384Z,95562.95
2022-09-16T20:09:55.311Z,95564.62
2022-09-16T20:12:25.180Z,95569.19
2022-09-16T20:14:53.748Z,95565.70
2022-09-16T20:17:24.185Z,95562.88
2022-09-16T20:19:54.270Z,95567.89
2022-09-16T20:22:24.339Z,95566.20
2022-09-16T20:25:18.671Z,95564.67
2022-09-16T20:27:43.995Z,95560.63
2022-09-16T20:30:13.911Z,95555.56
2022-09-16T20:32:43.836Z,95552.94
2022-09-16T20:35:13.969Z,95550.92
2022-09-16T20:37:44.184Z,95546.41
2022-09-16T20:40:16.089Z,95545.77
2022-09-16T20:42:46.515Z,95549.81
2022-09-16T20:45:16.758Z,95549.95
2022-09-16T20:47:45.354Z,95555.47
2022-09-16T20:50:14.891Z,95545.40
2022-09-16T20:52:44.404Z,95541.88
2022-09-16T20:55:14.577Z,95537.31
2022-09-16T20:57:44.319Z,95535.23
2022-09-16T21:00:14.386Z,95530.64
2022-09-16T21:02:44.634Z,95532.09
2022-09-16T21:05:14.660Z,95528.55
2022-09-16T21:07:44.765Z,95531.15
2022-09-16T21:10:14.411Z,95529.70
2022-09-16T21:12:44.438Z,95529.92
2022-09-16T21:15:14.846Z,95535.11
2022-09-16T21:17:44.922Z,95538.55
2022-09-16T21:20:14.587Z,95543.55
2022-09-16T21:22:44.989Z,95547.97
2022-09-16T21:25:14.426Z,95548.12
2022-09-16T21:27:44.424Z,95546.05
2022-09-16T21:30:14.659Z,95543.44
2022-09-16T21:32:44.638Z,95548.23
2022-09-16T21:35:14.768Z,95551.48
2022-09-16T21:37:44.735Z,95546.40
2022-09-16T21:40:14.431Z,95546.17
2022-09-16T21:42:45.735Z,95539.77
2022-09-16T21:45:15.463Z,95527.09
2022-09-16T21:47:45.573Z,95521.08
2022-09-16T21:50:15.657Z,95522.30
2022-09-16T21:52:45.730Z,95522.48
2022-09-16T21:55:15.407Z,95521.24
2022-09-16T21:57:43.775Z,95522.73
2022-09-16T22:00:14.402Z,95521.73
2022-09-16T22:02:44.349Z,95522.17
2022-09-16T22:05:14.463Z,95526.34
2022-09-16T22:07:44.480Z,95520.19
2022-09-16T22:10:14.297Z,95521.03
2022-09-16T22:12:44.394Z,95520.70
2022-09-16T22:15:14.567Z,95517.71
2022-09-16T22:17:47.875Z,95514.54
2022-09-16T22:20:24.341Z,95512.55
2022-09-16T22:22:56.664Z,95507.02
2022-09-16T22:25:26.460Z,95500.30
2022-09-16T22:27:55.608Z,95499.10
2022-09-16T22:30:25.437Z,95499.13
2022-09-16T22:32:57.668Z,95496.30
2022-09-16T22:35:27.964Z,95498.77
2022-09-16T22:37:57.775Z,95494.64
2022-09-16T22:40:27.608Z,95488.54
2022-09-16T22:42:58.762Z,95485.88
2022-09-16T22:45:28.618Z,95476.70
2022-09-16T22:47:57.889Z,95472.20
2022-09-16T22:50:27.840Z,95465.61
2022-09-16T22:52:57.516Z,95465.77
2022-09-16T22:55:27.274Z,95459.75
2022-09-16T22:57:57.913Z,95459.80
2022-09-16T23:00:27.694Z,95459.05
2022-09-16T23:02:56.952Z,95463.95
2022-09-16T23:05:26.941Z,95467.66
2022-09-16T23:07:56.598Z,95462.46
2022-09-16T23:10:26.314Z,95463.88
2022-09-16T23:12:56.042Z,95460.95
2022-09-16T23:15:27.485Z,95461.27
2022-09-16T23:17:57.629Z,95463.73
2022-09-16T23:20:27.525Z,95456.37
2022-09-16T23:22:57.875Z,95446.44
2022-09-16T23:25:26.948Z,95441.34
2022-09-16T23:27:56.587Z,95436.36
2022-09-16T23:30:28.065Z,95439.11
2022-09-16T23:32:58.299Z,95432.85
2022-09-16T23:35:32.780Z,95430.96
2022-09-16T23:38:04.769Z,95425.53
2022-09-16T23:40:41.008Z,95412.83
2022-09-16T23:43:11.311Z,95413.69
2022-09-16T23:45:45.585Z,95406.52
2022-09-16T23:48:20.785Z,95405.80
2022-09-16T23:50:54.658Z,95414.05
2022-09-16T23:53:28.309Z,95416.02
2022-09-16T23:55:59.266Z,95415.90
2022-09-16T23:58:31.285Z,95424.92
